createdAt,value
2023-01-19T00:02:10.043Z,8.71
2023-01-19T00:07:16.154Z,7.03
2023-01-19T00:12:22.329Z,9.48
2023-01-19T00:17:28.439Z,8.20
2023-01-19T00:22:34.573Z,9.01
2023-01-19T00:27:40.680Z,8.12
2023-01-19T00:32:47.203Z,8.59
2023-01-19T00:37:53.269Z,8.50
2023-01-19T00:42:59.808Z,9.28
2023-01-19T00:48:05.469Z,8.89
2023-01-19T00:53:11.840Z,8.49
2023-01-19T00:58:18.085Z,9.61
2023-01-19T01:03:24.373Z,8.34
2023-01-19T01:08:30.454Z,8.84
2023-01-19T01:13:36.658Z,8.42
2023-01-19T01:18:42.807Z,10.14
2023-01-19T01:23:49.069Z,9.60
2023-01-19T01:28:55.121Z,8.77
2023-01-19T01:34:01.825Z,8.31
2023-01-19T01:39:07.953Z,7.98
2023-01-19T01:44:14.107Z,7.75
2023-01-19T01:49:20.269Z,8.65
2023-01-19T01:54:26.507Z,7.32
2023-01-19T01:55:40.748Z,8.64
2023-01-19T02:00:46.897Z,8.56
2023-01-19T02:05:52.639Z,7.16
2023-01-19T02:10:58.833Z,7.40
2023-01-19T02:16:04.996Z,7.43
2023-01-19T02:21:11.603Z,7.08
2023-01-19T02:26:17.939Z,7.03
2023-01-19T02:31:24.058Z,7.04
2023-01-19T02:36:30.287Z,7.22
2023-01-19T02:41:36.441Z,7.87
2023-01-19T02:46:42.747Z,8.55
2023-01-19T02:51:48.878Z,7.61
2023-01-19T02:56:55.069Z,8.78
2023-01-19T03:02:01.287Z,7.60
2023-01-19T03:07:07.558Z,8.47
2023-01-19T03:12:13.717Z,8.26
2023-01-19T03:17:20.005Z,8.08
2023-01-19T03:22:26.196Z,7.79
2023-01-19T03:27:33.406Z,7.71
2023-01-19T03:32:39.586Z,8.12
2023-01-19T03:37:45.764Z,7.96
2023-01-19T03:42:51.915Z,7.44
2023-01-19T03:47:58.160Z,7.44
2023-01-19T03:53:04.274Z,9.04
2023-01-19T03:58:10.432Z,8.14
2023-01-19T04:03:16.551Z,8.44
2023-01-19T04:08:22.759Z,8.90
2023-01-19T04:13:28.891Z,9.07
2023-01-19T04:18:35.108Z,8.39
2023-01-19T04:23:41.175Z,8.36
2023-01-19T04:28:47.400Z,8.13
2023-01-19T04:33:53.520Z,8.56
2023-01-19T04:38:59.736Z,9.26
2023-01-19T04:44:05.856Z,9.01
2023-01-19T04:49:12.008Z,10.16
2023-01-19T04:54:18.113Z,9.88
2023-01-19T04:59:24.390Z,10.41
2023-01-19T05:04:30.469Z,10.45
2023-01-19T05:09:36.745Z,11.21
2023-01-19T05:14:42.890Z,12.22
2023-01-19T05:19:49.098Z,12.62
2023-01-19T05:24:55.163Z,12.72
2023-01-19T05:30:01.405Z,11.80
2023-01-19T05:35:08.333Z,13.71
2023-01-19T05:40:14.644Z,13.52
2023-01-19T05:45:20.739Z,14.43
2023-01-19T05:50:27.055Z,13.70
2023-01-19T05:55:33.157Z,14.51
2023-01-19T06:00:39.402Z,14.43
2023-01-19T06:05:45.517Z,14.38
2023-01-19T06:10:51.813Z,14.34
2023-01-19T06:15:58.058Z,14.42
2023-01-19T06:21:04.302Z,14.59
2023-01-19T06:26:10.397Z,14.03
2023-01-19T06:31:16.793Z,12.63
2023-01-19T06:36:22.810Z,12.61
2023-01-19T06:41:29.083Z,13.56
2023-01-19T06:46:35.223Z,13.68
2023-01-19T06:51:41.430Z,13.00
2023-01-19T06:56:47.554Z,12.07
2023-01-19T07:01:53.921Z,12.88
2023-01-19T07:06:59.820Z,13.26
2023-01-19T07:12:06.109Z,12.79
2023-01-19T07:17:12.385Z,13.43
2023-01-19T07:22:18.854Z,13.74
2023-01-19T07:27:24.919Z,11.68
2023-01-19T07:32:31.284Z,12.47
2023-01-19T07:37:37.335Z,12.40
2023-01-19T07:42:43.643Z,11.98
2023-01-19T07:47:50.805Z,12.55
2023-01-19T07:52:57.252Z,11.32
2023-01-19T07:58:03.355Z,12.15
2023-01-19T08:03:09.701Z,11.77
2023-01-19T08:08:15.798Z,10.85
2023-01-19T08:13:22.174Z,11.28
2023-01-19T08:18:28.276Z,10.41
2023-01-19T08:23:34.479Z,10.62
2023-01-19T08:28:40.661Z,10.53
2023-01-19T08:33:47.231Z,9.03
2023-01-19T08:38:53.347Z,8.92
2023-01-19T08:43:59.669Z,9.26
2023-01-19T08:49:05.766Z,8.22
2023-01-19T08:54:11.945Z,8.81
2023-01-19T08:59:18.038Z,9.24
2023-01-19T09:04:24.251Z,9.07
2023-01-19T09:09:30.341Z,9.02
2023-01-19T09:14:36.645Z,7.86
2023-01-19T09:19:42.730Z,15.13
2023-01-19T09:24:48.898Z,9.16
2023-01-19T09:29:55.047Z,8.03
2023-01-19T09:35:02.280Z,8.30
2023-01-19T09:40:08.468Z,7.32
2023-01-19T09:45:14.701Z,7.17
2023-01-19T09:50:20.704Z,7.76
2023-01-19T09:55:26.848Z,7.39
2023-01-19T10:00:33.133Z,7.28
2023-01-19T10:05:39.444Z,6.35
2023-01-19T10:10:45.515Z,5.83
2023-01-19T10:15:51.698Z,7.97
2023-01-19T10:20:57.776Z,5.72
2023-01-19T10:26:04.023Z,7.88
2023-01-19T10:31:10.293Z,3.80
2023-01-19T10:36:16.505Z,3.49
2023-01-19T10:41:22.548Z,4.23
2023-01-19T10:46:28.832Z,3.68
2023-01-19T10:51:35.001Z,5.35
2023-01-19T10:56:41.114Z,5.91
2023-01-19T11:01:47.438Z,5.05
2023-01-19T11:06:53.414Z,5.34
2023-01-19T11:11:59.512Z,4.12
2023-01-19T11:17:05.664Z,4.70
2023-01-19T11:22:11.742Z,4.33
2023-01-19T11:27:17.934Z,3.95
2023-01-19T11:32:24.103Z,6.65
2023-01-19T11:37:30.337Z,4.75
2023-01-19T11:42:36.429Z,4.20
2023-01-19T11:47:42.579Z,5.72
2023-01-19T11:52:48.715Z,4.97
2023-01-19T11:57:55.065Z,4.56
2023-01-19T12:03:01.176Z,8.24
2023-01-19T12:08:07.785Z,4.24
2023-01-19T12:13:13.034Z,6.73
2023-01-19T12:18:19.257Z,3.59
2023-01-19T12:23:25.362Z,5.02
2023-01-19T12:28:31.538Z,7.32
2023-01-19T12:33:37.585Z,5.75
2023-01-19T12:38:43.765Z,4.22
2023-01-19T12:43:49.941Z,4.32
2023-01-19T12:48:56.230Z,4.61
2023-01-19T12:54:02.355Z,4.79
2023-01-19T12:59:08.749Z,5.59
2023-01-19T13:04:14.866Z,5.91
2023-01-19T13:09:21.103Z,3.94
2023-01-19T13:14:27.251Z,4.71
2023-01-19T13:19:33.466Z,4.20
2023-01-19T13:24:39.647Z,4.71
2023-01-19T13:29:45.980Z,3.49
2023-01-19T13:34:52.148Z,4.17
2023-01-19T13:39:58.681Z,5.85
2023-01-19T13:45:04.548Z,3.80
2023-01-19T13:50:10.815Z,3.96
2023-01-19T13:55:17.008Z,5.16
2023-01-19T14:00:23.130Z,4.82
2023-01-19T14:05:29.217Z,4.72
2023-01-19T14:10:35.479Z,3.83
2023-01-19T14:15:41.673Z,3.71
2023-01-19T14:20:47.799Z,4.26
2023-01-19T14:25:53.929Z,4.74
2023-01-19T14:31:00.369Z,5.20
2023-01-19T14:36:06.317Z,5.91
2023-01-19T14:41:12.568Z,4.21
2023-01-19T14:46:18.696Z,4.65
2023-01-19T14:51:24.803Z,4.62
2023-01-19T14:56:30.967Z,5.57
2023-01-19T15:01:37.411Z,2.39
2023-01-19T15:06:43.325Z,3.02
2023-01-19T15:11:49.499Z,4.97
2023-01-19T15:16:55.679Z,4.14
2023-01-19T15:22:01.893Z,3.28
2023-01-19T15:27:07.981Z,3.67
2023-01-19T15:32:14.119Z,2.88
2023-01-19T15:37:20.290Z,3.85
2023-01-19T15:42:26.551Z,3.82
2023-01-19T15:47:32.652Z,4.15
2023-01-19T15:52:38.819Z,4.21
2023-01-19T15:57:44.949Z,2.90
2023-01-19T16:02:51.257Z,3.48
2023-01-19T16:07:57.280Z,3.56
2023-01-19T16:13:03.613Z,4.47
2023-01-19T16:18:09.744Z,4.63
2023-01-19T16:23:16.116Z,5.31
2023-01-19T16:28:22.040Z,5.42
2023-01-19T16:33:28.196Z,7.16
2023-01-19T16:38:34.396Z,6.14
2023-01-19T16:43:40.787Z,5.42
2023-01-19T16:48:46.954Z,3.69
2023-01-19T16:53:53.107Z,5.94
2023-01-19T16:58:59.235Z,11.64
2023-01-19T17:04:05.454Z,15.40
2023-01-19T17:09:11.580Z,9.32
2023-01-19T17:14:17.921Z,5.68
2023-01-19T17:19:24.009Z,5.43
2023-01-19T17:24:30.160Z,5.07
2023-01-19T17:29:36.389Z,4.89
2023-01-19T17:34:42.630Z,3.79
2023-01-19T17:39:48.705Z,5.04
2023-01-19T17:44:54.871Z,3.87
2023-01-19T17:50:01.083Z,3.27
2023-01-19T17:55:07.680Z,4.35
2023-01-19T18:00:13.946Z,4.35
2023-01-19T18:05:19.994Z,10.00
2023-01-19T18:10:26.146Z,21.33
2023-01-19T18:15:32.940Z,8.85
2023-01-19T18:20:39.511Z,3.88
2023-01-19T18:25:47.308Z,6.11
2023-01-19T18:30:54.034Z,4.50
2023-01-19T18:36:00.864Z,4.50
2023-01-19T18:41:07.328Z,4.53
2023-01-19T18:47:26.246Z,5.24
2023-01-19T18:52:32.446Z,4.36
2023-01-19T18:57:38.688Z,3.60
2023-01-19T19:02:44.786Z,3.77
2023-01-19T19:07:51.052Z,4.60
2023-01-19T19:12:57.199Z,2.90
2023-01-19T19:18:03.421Z,2.47
2023-01-19T19:23:09.549Z,3.82
2023-01-19T19:28:15.775Z,2.96
2023-01-19T19:33:22.941Z,3.19
2023-01-19T19:38:29.097Z,3.17
2023-01-19T19:43:35.197Z,3.01
2023-01-19T19:48:41.447Z,4.11
2023-01-19T19:53:50.941Z,4.51
2023-01-19T19:58:54.338Z,3.43
2023-01-19T20:04:00.414Z,4.29
2023-01-19T20:09:06.740Z,2.64
2023-01-19T20:14:12.938Z,4.01
2023-01-19T20:19:20.816Z,2.98
2023-01-19T20:24:27.578Z,3.68
2023-01-19T20:29:35.282Z,2.60
2023-01-19T20:34:42.032Z,4.36
2023-01-19T20:39:48.697Z,3.13
2023-01-19T20:44:54.884Z,3.92
2023-01-19T20:50:01.243Z,4.61
2023-01-19T20:55:07.728Z,5.29
2023-01-19T21:00:13.973Z,4.20
2023-01-19T21:05:20.160Z,4.19
2023-01-19T21:10:26.336Z,3.25
2023-01-19T21:15:32.484Z,3.93
2023-01-19T21:20:38.734Z,3.68
2023-01-19T21:25:44.867Z,4.32
2023-01-19T21:30:51.103Z,5.14
2023-01-19T21:35:57.231Z,2.91
2023-01-19T21:41:03.473Z,3.35
2023-01-19T21:46:09.642Z,2.43
2023-01-19T21:51:16.685Z,4.03
2023-01-19T21:56:22.771Z,3.48
2023-01-19T22:01:29.070Z,3.84
2023-01-19T22:06:35.126Z,3.45
2023-01-19T22:11:41.460Z,4.21
2023-01-19T22:16:47.663Z,5.76
2023-01-19T22:21:53.916Z,2.68
2023-01-19T22:27:00.093Z,3.68
2023-01-19T22:32:06.494Z,3.58
2023-01-19T22:37:12.579Z,3.55
2023-01-19T22:42:18.932Z,2.88
2023-01-19T22:47:25.092Z,3.86
2023-01-19T22:52:31.323Z,2.66
2023-01-19T22:57:37.421Z,9.49
2023-01-19T23:02:43.733Z,4.65
2023-01-19T23:07:49.807Z,3.29
2023-01-19T23:12:56.373Z,5.22
2023-01-19T23:18:02.467Z,4.38
2023-01-19T23:23:08.748Z,3.23
2023-01-19T23:28:14.879Z,5.28
2023-01-19T23:33:21.440Z,3.89
2023-01-19T23:38:27.523Z,4.74
2023-01-19T23:43:33.760Z,3.17
2023-01-19T23:48:39.888Z,4.63
2023-01-19T23:53:46.021Z,3.75
2023-01-19T23:58:52.078Z,4.37
